Time;durP1;ratioP1;P1;durP2;ratioP2;P2;SDS_P1;SDS_P2;PMS_P1;PMS_P2;Temp;Humidity;BMP_temperature;BMP_pressure;BME280_temperature;BME280_humidity;BME280_pressure;Samples;Min_cycle;Max_cycle;Signal;HPM_P1;HPM_P2
2023/12/04 00:01:43;;;;;;;12.40;11.80;;;;;;;;;;5074360;28;20044;-69
2023/12/04 00:04:08;;;;;;;12.20;11.60;;;;;;;;;;5077264;28;20021;-68
2023/12/04 00:06:34;;;;;;;12.25;11.65;;;;;;;;;;5073320;28;20028;-69
2023/12/04 00:08:59;;;;;;;11.82;11.23;;;;;;;;;;5074847;28;20029;-68
2023/12/04 00:11:24;;;;;;;13.05;12.38;;;;;;;;;;5075371;28;20028;-68
2023/12/04 00:13:50;;;;;;;12.07;11.48;;;;;;;;;;5069765;28;20677;-67
2023/12/04 00:16:23;;;;;;;11.85;11.30;;;;;;;;;;5113036;27;20388;-68
2023/12/04 00:18:49;;;;;;;13.27;12.57;;;;;;;;;;5099931;28;20054;-67
2023/12/04 00:21:14;;;;;;;12.57;11.98;;;;;;;;;;5083485;28;20035;-68
2023/12/04 00:23:40;;;;;;;12.95;12.25;;;;;;;;;;5085205;28;20052;-67
2023/12/04 00:26:05;;;;;;;12.52;11.93;;;;;;;;;;5092439;28;20407;-67
2023/12/04 00:28:31;;;;;;;12.30;11.70;;;;;;;;;;5095469;28;20066;-69
2023/12/04 00:30:56;;;;;;;12.45;11.85;;;;;;;;;;5095278;28;20049;-68
2023/12/04 00:33:21;;;;;;;12.00;11.50;;;;;;;;;;5093662;28;20020;-68
2023/12/04 00:35:47;;;;;;;12.07;11.48;;;;;;;;;;5087116;28;20383;-68
2023/12/04 00:38:12;;;;;;;12.23;11.63;;;;;;;;;;5096378;28;20470;-70
2023/12/04 00:40:37;;;;;;;12.60;12.00;;;;;;;;;;5083757;28;20376;-68
2023/12/04 00:43:03;;;;;;;12.30;11.70;;;;;;;;;;5096616;28;20035;-68
2023/12/04 00:45:28;;;;;;;12.90;12.20;;;;;;;;;;5093973;28;20017;-69
2023/12/04 00:47:54;;;;;;;12.27;11.68;;;;;;;;;;5093925;28;20110;-69
2023/12/04 00:50:19;;;;;;;12.32;11.73;;;;;;;;;;5095422;28;20028;-69
2023/12/04 00:52:44;;;;;;;12.30;11.70;;;;;;;;;;5094380;28;20027;-69
2023/12/04 00:55:10;;;;;;;12.18;11.57;;;;;;;;;;5093106;28;20027;-70
2023/12/04 00:57:35;;;;;;;12.48;11.88;;;;;;;;;;5091384;28;20030;-68
2023/12/04 01:00:01;;;;;;;12.70;12.07;;;;;;;;;;5092963;28;20024;-70
2023/12/04 01:02:26;;;;;;;12.10;11.50;;;;;;;;;;5094650;28;20099;-69
2023/12/04 01:04:51;;;;;;;11.85;11.32;;;;;;;;;;5092525;28;20032;-69
2023/12/04 01:07:18;;;;;;;12.25;11.65;;;;;;;;;;5093716;28;20095;-69
2023/12/04 01:09:43;;;;;;;12.43;11.82;;;;;;;;;;5095612;28;20078;-68
2023/12/04 01:12:08;;;;;;;12.82;12.13;;;;;;;;;;5092824;28;20032;-68
2023/12/04 01:14:35;;;;;;;12.20;11.60;;;;;;;;;;5094230;28;20048;-67
2023/12/04 01:17:00;;;;;;;12.10;11.50;;;;;;;;;;5079856;28;20103;-68
2023/12/04 01:19:25;;;;;;;11.55;11.05;;;;;;;;;;5098857;28;20136;-68
2023/12/04 01:21:51;;;;;;;12.38;11.77;;;;;;;;;;5094006;28;20020;-68
2023/12/04 01:24:16;;;;;;;11.68;11.18;;;;;;;;;;5094660;28;20074;-69
2023/12/04 01:26:41;;;;;;;12.73;12.02;;;;;;;;;;5088192;28;20032;-68
2023/12/04 01:29:08;;;;;;;11.60;11.10;;;;;;;;;;5077907;28;21219;-69
2023/12/04 01:31:33;;;;;;;11.43;10.93;;;;;;;;;;5100013;28;20421;-68
2023/12/04 01:33:59;;;;;;;12.00;11.40;;;;;;;;;;5081660;28;20069;-70
2023/12/04 01:36:24;;;;;;;12.05;11.45;;;;;;;;;;5089176;28;20067;-68
2023/12/04 01:38:50;;;;;;;12.40;11.80;;;;;;;;;;5084478;28;20043;-69
2023/12/04 01:41:15;;;;;;;12.68;12.02;;;;;;;;;;5077953;28;20515;-68
2023/12/04 01:43:40;;;;;;;12.95;12.30;;;;;;;;;;5084711;28;20384;-70
2023/12/04 01:46:06;;;;;;;12.30;11.70;;;;;;;;;;5073104;28;20073;-68
2023/12/04 01:48:32;;;;;;;12.40;11.80;;;;;;;;;;5075770;28;20502;-68
2023/12/04 01:51:00;;;;;;;12.38;11.77;;;;;;;;;;5087755;28;20485;-68
2023/12/04 01:53:26;;;;;;;12.02;11.43;;;;;;;;;;5081183;28;20027;-69
2023/12/04 01:55:51;;;;;;;12.75;12.15;;;;;;;;;;5075492;28;20017;-69
2023/12/04 01:58:17;;;;;;;12.02;11.43;;;;;;;;;;5077752;28;20017;-69
2023/12/04 02:00:42;;;;;;;12.35;11.75;;;;;;;;;;5085308;28;20387;-70
2023/12/04 02:03:09;;;;;;;12.48;11.88;;;;;;;;;;5072705;28;20028;-69
2023/12/04 02:05:35;;;;;;;13.07;12.48;;;;;;;;;;5081474;28;20012;-69
2023/12/04 02:08:00;;;;;;;12.95;12.27;;;;;;;;;;5082994;28;20022;-70
2023/12/04 02:10:26;;;;;;;12.55;11.95;;;;;;;;;;5086890;28;20020;-68
2023/12/04 02:12:51;;;;;;;12.40;11.80;;;;;;;;;;5078272;28;20052;-68
2023/12/04 02:15:17;;;;;;;12.27;11.68;;;;;;;;;;5081340;28;20040;-70
2023/12/04 02:17:45;;;;;;;12.40;11.80;;;;;;;;;;5074432;28;20028;-68
2023/12/04 02:20:14;;;;;;;12.48;11.88;;;;;;;;;;5094897;28;20523;-68
2023/12/04 02:22:40;;;;;;;11.98;11.45;;;;;;;;;;5078960;28;20040;-68
2023/12/04 02:25:06;;;;;;;12.30;11.70;;;;;;;;;;5080767;28;20024;-69
2023/12/04 02:27:44;;;;;;;12.43;11.82;;;;;;;;;;5072182;28;20043;-68
2023/12/04 02:30:11;;;;;;;12.43;11.82;;;;;;;;;;5078937;28;20511;-69
2023/12/04 02:32:39;;;;;;;12.20;11.60;;;;;;;;;;5068930;28;20106;-68
2023/12/04 02:35:05;;;;;;;11.60;11.10;;;;;;;;;;5072905;28;20446;-68
2023/12/04 02:37:31;;;;;;;12.50;11.90;;;;;;;;;;5074706;28;20025;-68
2023/12/04 02:39:57;;;;;;;12.13;11.52;;;;;;;;;;5074478;28;20464;-68
2023/12/04 02:42:24;;;;;;;12.50;11.90;;;;;;;;;;5079188;28;20027;-68
2023/12/04 02:44:50;;;;;;;11.90;11.40;;;;;;;;;;5077794;28;20025;-69
2023/12/04 02:47:16;;;;;;;12.88;12.18;;;;;;;;;;5072877;28;20150;-70
2023/12/04 02:49:41;;;;;;;12.15;11.55;;;;;;;;;;5072514;28;20416;-69
2023/12/04 02:52:06;;;;;;;12.40;11.80;;;;;;;;;;5075099;28;20031;-68
2023/12/04 02:54:32;;;;;;;12.45;11.85;;;;;;;;;;5072336;28;20028;-70
2023/12/04 02:56:57;;;;;;;12.80;12.10;;;;;;;;;;5082247;28;20028;-70
2023/12/04 02:59:22;;;;;;;12.75;12.13;;;;;;;;;;5072035;28;20021;-68
2023/12/04 03:01:48;;;;;;;12.45;11.85;;;;;;;;;;5074503;28;20434;-69
2023/12/04 03:04:13;;;;;;;12.80;12.10;;;;;;;;;;5079090;28;20020;-69
2023/12/04 03:06:39;;;;;;;12.23;11.63;;;;;;;;;;5073038;28;20476;-68
2023/12/04 03:09:04;;;;;;;11.88;11.35;;;;;;;;;;5072093;28;20032;-70
2023/12/04 03:11:30;;;;;;;12.60;12.00;;;;;;;;;;5076702;28;20025;-68
2023/12/04 03:13:55;;;;;;;12.02;11.43;;;;;;;;;;5073479;28;20024;-69
2023/12/04 03:16:21;;;;;;;12.20;11.60;;;;;;;;;;5070890;28;20447;-69
2023/12/04 03:18:46;;;;;;;12.20;11.60;;;;;;;;;;5070480;28;20093;-69
2023/12/04 03:21:11;;;;;;;12.43;11.82;;;;;;;;;;5077362;28;20012;-69
2023/12/04 03:23:37;;;;;;;12.30;11.70;;;;;;;;;;5067608;28;20031;-70
2023/12/04 03:26:02;;;;;;;12.05;11.45;;;;;;;;;;5073472;28;20021;-69
2023/12/04 03:28:28;;;;;;;11.80;11.20;;;;;;;;;;5070149;28;20544;-69
2023/12/04 03:30:53;;;;;;;11.52;10.98;;;;;;;;;;5070764;28;20077;-70
2023/12/04 03:33:18;;;;;;;11.50;11.00;;;;;;;;;;5069891;28;20077;-68
2023/12/04 03:35:44;;;;;;;11.32;10.82;;;;;;;;;;5074079;28;20032;-69
2023/12/04 03:38:09;;;;;;;11.93;11.32;;;;;;;;;;5070010;28;20111;-69
2023/12/04 03:40:34;;;;;;;11.70;11.10;;;;;;;;;;5072009;28;20016;-68
2023/12/04 03:43:00;;;;;;;11.77;11.18;;;;;;;;;;5074073;28;20479;-70
2023/12/04 03:45:25;;;;;;;11.82;11.23;;;;;;;;;;5075670;28;20586;-69
2023/12/04 03:47:50;;;;;;;12.32;11.70;;;;;;;;;;5071733;28;20024;-69
2023/12/04 03:50:16;;;;;;;12.05;11.45;;;;;;;;;;5080811;28;20024;-68
2023/12/04 03:52:41;;;;;;;12.13;11.52;;;;;;;;;;5070476;28;20028;-68
2023/12/04 03:55:08;;;;;;;12.30;11.70;;;;;;;;;;5068526;28;20529;-67
2023/12/04 03:57:33;;;;;;;12.35;11.75;;;;;;;;;;5072834;28;20484;-69
2023/12/04 03:59:58;;;;;;;11.73;11.15;;;;;;;;;;5079592;28;20034;-68
2023/12/04 04:02:24;;;;;;;12.00;11.40;;;;;;;;;;5079375;28;20074;-68
2023/12/04 04:04:49;;;;;;;11.90;11.30;;;;;;;;;;5072557;28;20024;-68
2023/12/04 04:07:16;;;;;;;11.75;11.15;;;;;;;;;;5064283;28;20450;-69
2023/12/04 04:09:41;;;;;;;12.02;11.43;;;;;;;;;;5069708;28;20028;-68
2023/12/04 04:12:06;;;;;;;12.45;11.85;;;;;;;;;;5070284;28;20085;-70
2023/12/04 04:14:32;;;;;;;12.38;11.77;;;;;;;;;;5079513;28;20087;-69
2023/12/04 04:16:57;;;;;;;13.48;12.68;;;;;;;;;;5071759;28;20364;-68
2023/12/04 04:19:22;;;;;;;12.13;11.52;;;;;;;;;;5075208;28;20503;-68
2023/12/04 04:21:48;;;;;;;12.18;11.57;;;;;;;;;;5074631;28;20419;-70
2023/12/04 04:24:13;;;;;;;13.00;12.30;;;;;;;;;;5078834;28;20067;-70
2023/12/04 04:26:38;;;;;;;11.98;11.38;;;;;;;;;;5067728;28;20028;-68
2023/12/04 04:29:04;;;;;;;11.70;11.18;;;;;;;;;;5080437;28;20028;-69
2023/12/04 04:31:30;;;;;;;12.55;11.95;;;;;;;;;;5070080;28;20044;-69
2023/12/04 04:33:55;;;;;;;12.20;11.60;;;;;;;;;;5077626;28;20059;-70
2023/12/04 04:36:20;;;;;;;13.80;13.00;;;;;;;;;;5071928;28;20383;-68
2023/12/04 04:38:46;;;;;;;12.25;11.65;;;;;;;;;;5080210;28;20388;-69
2023/12/04 04:41:15;;;;;;;13.02;12.32;;;;;;;;;;5077134;28;20438;-69
2023/12/04 04:43:41;;;;;;;13.40;12.65;;;;;;;;;;5072703;28;20009;-70
2023/12/04 04:46:06;;;;;;;13.82;13.02;;;;;;;;;;5073190;28;20032;-69
2023/12/04 04:48:32;;;;;;;12.50;11.90;;;;;;;;;;5070885;28;20060;-68
2023/12/04 04:50:57;;;;;;;12.48;11.88;;;;;;;;;;5081323;28;20020;-68
2023/12/04 04:53:22;;;;;;;13.07;12.38;;;;;;;;;;5076662;28;20021;-69
2023/12/04 04:55:48;;;;;;;12.60;12.00;;;;;;;;;;5074561;28;20104;-68
2023/12/04 04:58:13;;;;;;;12.35;11.75;;;;;;;;;;5078687;28;20103;-71
2023/12/04 05:00:38;;;;;;;13.23;12.52;;;;;;;;;;5077615;28;20020;-70
2023/12/04 05:03:04;;;;;;;12.48;11.88;;;;;;;;;;5077059;28;20081;-69
2023/12/04 05:05:29;;;;;;;13.02;12.32;;;;;;;;;;5071778;28;20085;-70
2023/12/04 05:07:54;;;;;;;12.40;11.80;;;;;;;;;;5072968;28;20111;-70
2023/12/04 05:10:20;;;;;;;12.02;11.43;;;;;;;;;;5080232;28;20048;-71
2023/12/04 05:12:45;;;;;;;12.50;11.80;;;;;;;;;;5073335;28;20052;-69
2023/12/04 05:15:10;;;;;;;12.60;11.90;;;;;;;;;;5078998;28;20079;-69
2023/12/04 05:17:35;;;;;;;12.32;11.68;;;;;;;;;;5072982;28;20056;-71
2023/12/04 05:20:01;;;;;;;11.50;11.00;;;;;;;;;;5076167;28;20068;-70
2023/12/04 05:22:26;;;;;;;12.85;12.15;;;;;;;;;;5081182;28;20063;-70
2023/12/04 05:24:51;;;;;;;13.98;13.18;;;;;;;;;;5074420;28;20021;-68
2023/12/04 05:27:17;;;;;;;13.05;12.35;;;;;;;;;;5067032;28;20064;-69
2023/12/04 05:29:42;;;;;;;14.30;13.40;;;;;;;;;;5069446;28;20035;-70
2023/12/04 05:32:07;;;;;;;14.10;13.25;;;;;;;;;;5069712;28;20077;-69
2023/12/04 05:34:33;;;;;;;13.23;12.48;;;;;;;;;;5074213;28;20144;-70
2023/12/04 05:36:58;;;;;;;13.23;12.52;;;;;;;;;;5083310;28;20024;-69
2023/12/04 05:39:23;;;;;;;13.38;12.68;;;;;;;;;;5068970;28;20081;-68
2023/12/04 05:41:49;;;;;;;13.73;12.93;;;;;;;;;;5074125;28;20068;-70
2023/12/04 05:44:14;;;;;;;13.48;12.70;;;;;;;;;;5077016;28;20162;-67
2023/12/04 05:46:40;;;;;;;13.38;12.68;;;;;;;;;;5068549;28;20063;-68
2023/12/04 05:49:05;;;;;;;13.68;12.98;;;;;;;;;;5071611;28;20020;-69
2023/12/04 05:51:31;;;;;;;12.93;12.23;;;;;;;;;;5074093;28;20376;-69
2023/12/04 05:53:56;;;;;;;14.10;13.30;;;;;;;;;;5074320;28;20487;-69
2023/12/04 05:56:21;;;;;;;13.70;12.93;;;;;;;;;;5066712;28;20024;-69
2023/12/04 05:58:46;;;;;;;14.05;13.25;;;;;;;;;;5070551;28;20020;-69
2023/12/04 06:01:12;;;;;;;12.95;12.25;;;;;;;;;;5070082;28;20039;-69
2023/12/04 06:03:37;;;;;;;13.10;12.40;;;;;;;;;;5068065;28;20028;-69
2023/12/04 06:06:03;;;;;;;11.85;11.23;;;;;;;;;;5069306;28;20017;-69
2023/12/04 06:08:28;;;;;;;12.30;11.60;;;;;;;;;;5072196;28;20504;-68
2023/12/04 06:10:53;;;;;;;11.05;10.52;;;;;;;;;;5071126;28;20484;-68
2023/12/04 06:13:19;;;;;;;10.80;10.30;;;;;;;;;;5067783;28;20029;-69
2023/12/04 06:15:44;;;;;;;11.40;10.80;;;;;;;;;;5073356;28;20055;-69
2023/12/04 06:18:09;;;;;;;11.25;10.65;;;;;;;;;;5072756;28;20790;-69
2023/12/04 06:20:35;;;;;;;12.25;11.55;;;;;;;;;;5069221;28;20078;-69
2023/12/04 06:23:00;;;;;;;11.68;11.07;;;;;;;;;;5068359;28;20024;-67
2023/12/04 06:25:26;;;;;;;11.10;10.52;;;;;;;;;;5076757;28;20028;-69
2023/12/04 06:27:51;;;;;;;12.20;11.52;;;;;;;;;;5081198;28;20081;-69
2023/12/04 06:30:17;;;;;;;11.82;11.23;;;;;;;;;;5069542;28;20024;-70
2023/12/04 06:32:43;;;;;;;11.65;11.05;;;;;;;;;;5074016;28;20120;-69
2023/12/04 06:35:09;;;;;;;12.13;11.52;;;;;;;;;;5068388;28;21422;-68
2023/12/04 06:37:34;;;;;;;12.40;11.80;;;;;;;;;;5068708;28;20090;-69
2023/12/04 06:40:02;;;;;;;13.10;12.40;;;;;;;;;;5070728;28;20016;-69
2023/12/04 06:42:27;;;;;;;12.50;11.90;;;;;;;;;;5070589;28;20047;-69
2023/12/04 06:44:53;;;;;;;12.00;11.40;;;;;;;;;;5071703;28;20713;-69
2023/12/04 06:47:22;;;;;;;12.30;11.70;;;;;;;;;;5070817;28;20036;-69
2023/12/04 06:49:47;;;;;;;12.23;11.63;;;;;;;;;;5084549;28;20544;-72
2023/12/04 06:52:12;;;;;;;13.30;12.60;;;;;;;;;;5069688;28;20032;-71
2023/12/04 06:54:38;;;;;;;13.30;12.60;;;;;;;;;;5074588;28;20515;-71
2023/12/04 06:57:03;;;;;;;12.23;11.63;;;;;;;;;;5075088;28;20480;-71
2023/12/04 06:59:29;;;;;;;12.93;12.23;;;;;;;;;;5068964;28;20149;-71
2023/12/04 07:01:56;;;;;;;12.25;11.65;;;;;;;;;;5072059;28;20090;-72
2023/12/04 07:04:21;;;;;;;12.30;11.70;;;;;;;;;;5076054;28;20365;-72
2023/12/04 07:06:48;;;;;;;11.55;10.95;;;;;;;;;;5068414;28;20028;-71
2023/12/04 07:09:13;;;;;;;11.13;10.63;;;;;;;;;;5066037;28;20150;-71
2023/12/04 07:11:39;;;;;;;11.18;10.60;;;;;;;;;;5070794;28;20107;-70
2023/12/04 07:14:04;;;;;;;11.52;10.93;;;;;;;;;;5069151;28;20029;-71
2023/12/04 07:16:30;;;;;;;11.88;11.27;;;;;;;;;;5069786;28;20024;-68
2023/12/04 07:18:55;;;;;;;17.48;16.30;;;;;;;;;;5054466;28;20017;-69
2023/12/04 07:21:21;;;;;;;13.30;12.60;;;;;;;;;;5062420;28;20395;-67
2023/12/04 07:23:46;;;;;;;13.10;12.40;;;;;;;;;;5060966;28;20025;-67
2023/12/04 07:26:11;;;;;;;12.98;12.30;;;;;;;;;;5065522;28;20775;-67
2023/12/04 07:28:37;;;;;;;13.65;12.95;;;;;;;;;;5062347;28;20025;-68
2023/12/04 07:31:02;;;;;;;14.32;13.52;;;;;;;;;;5062971;28;20021;-69
2023/12/04 07:33:28;;;;;;;13.32;12.63;;;;;;;;;;5065312;28;20035;-69
2023/12/04 07:35:54;;;;;;;12.82;12.13;;;;;;;;;;5064325;28;20532;-69
2023/12/04 07:38:19;;;;;;;12.60;11.90;;;;;;;;;;5064661;28;20020;-71
2023/12/04 07:40:44;;;;;;;11.90;11.30;;;;;;;;;;5064991;28;20027;-69
2023/12/04 07:43:10;;;;;;;12.45;11.85;;;;;;;;;;5063092;28;20559;-70
2023/12/04 07:45:36;;;;;;;13.05;12.35;;;;;;;;;;5065063;28;20082;-71
2023/12/04 07:48:02;;;;;;;13.48;12.77;;;;;;;;;;5066589;28;20516;-72
2023/12/04 07:50:27;;;;;;;13.63;12.93;;;;;;;;;;5061977;28;20048;-67
2023/12/04 07:52:53;;;;;;;13.30;12.60;;;;;;;;;;5069396;28;20051;-69
2023/12/04 07:55:18;;;;;;;12.85;12.25;;;;;;;;;;5063805;28;20028;-69
2023/12/04 07:57:44;;;;;;;13.77;13.07;;;;;;;;;;5066786;28;20025;-70
2023/12/04 08:00:09;;;;;;;14.10;13.40;;;;;;;;;;5065807;28;20021;-70
2023/12/04 08:02:34;;;;;;;13.20;12.60;;;;;;;;;;5063018;28;20388;-69
2023/12/04 08:05:00;;;;;;;13.15;12.52;;;;;;;;;;5068933;28;20285;-68
2023/12/04 08:07:25;;;;;;;13.65;12.95;;;;;;;;;;5071065;28;20045;-68
2023/12/04 08:09:51;;;;;;;14.07;13.38;;;;;;;;;;5065503;28;20025;-68
2023/12/04 08:12:16;;;;;;;14.27;13.57;;;;;;;;;;5064121;28;20515;-69
2023/12/04 08:14:41;;;;;;;13.52;12.82;;;;;;;;;;5064746;28;20044;-69
2023/12/04 08:17:07;;;;;;;12.98;12.38;;;;;;;;;;5060889;28;20921;-67
2023/12/04 08:19:32;;;;;;;14.93;14.13;;;;;;;;;;5062142;28;20032;-66
2023/12/04 08:21:58;;;;;;;13.82;13.13;;;;;;;;;;5071246;28;20020;-66
2023/12/04 08:24:23;;;;;;;13.82;13.13;;;;;;;;;;5067360;28;20373;-68
2023/12/04 08:26:50;;;;;;;13.50;12.80;;;;;;;;;;5072837;28;20388;-68
2023/12/04 08:29:16;;;;;;;14.23;13.52;;;;;;;;;;5065423;28;20021;-68
2023/12/04 08:31:41;;;;;;;14.05;13.35;;;;;;;;;;5064565;28;20035;-69
2023/12/04 08:34:08;;;;;;;12.90;12.30;;;;;;;;;;5067125;28;20025;-70
2023/12/04 08:36:33;;;;;;;13.05;12.45;;;;;;;;;;5066183;28;20128;-68
2023/12/04 08:38:59;;;;;;;13.90;13.20;;;;;;;;;;5064926;28;20031;-68
2023/12/04 08:41:24;;;;;;;13.80;13.10;;;;;;;;;;5083223;28;20028;-69
2023/12/04 08:43:50;;;;;;;13.07;12.48;;;;;;;;;;5081005;28;20020;-69
2023/12/04 08:46:16;;;;;;;14.73;13.93;;;;;;;;;;5065432;28;20104;-69
2023/12/04 08:48:42;;;;;;;14.65;13.85;;;;;;;;;;5064893;28;20386;-71
2023/12/04 08:51:08;;;;;;;15.00;14.20;;;;;;;;;;5075328;28;20013;-68
2023/12/04 08:53:34;;;;;;;14.60;13.80;;;;;;;;;;5070571;28;20074;-68
2023/12/04 08:55:59;;;;;;;14.38;13.60;;;;;;;;;;5069865;28;20016;-71
2023/12/04 08:58:24;;;;;;;15.23;14.35;;;;;;;;;;5071440;28;20822;-68
2023/12/04 09:00:50;;;;;;;14.13;13.43;;;;;;;;;;5067105;28;20024;-70
2023/12/04 09:03:16;;;;;;;14.30;13.50;;;;;;;;;;5064032;28;20039;-70
2023/12/04 09:05:41;;;;;;;13.70;13.00;;;;;;;;;;5068579;28;20108;-70
2023/12/04 09:08:07;;;;;;;13.90;13.20;;;;;;;;;;5072531;28;20594;-69
2023/12/04 09:10:32;;;;;;;14.45;13.65;;;;;;;;;;5069559;28;20028;-69
2023/12/04 09:12:58;;;;;;;14.25;13.45;;;;;;;;;;5074300;28;20353;-69
2023/12/04 09:15:23;;;;;;;13.90;13.18;;;;;;;;;;5072828;28;20569;-70
2023/12/04 09:17:48;;;;;;;14.07;13.27;;;;;;;;;;5072438;28;20012;-69
2023/12/04 09:20:14;;;;;;;14.40;13.60;;;;;;;;;;5069922;28;20042;-70
2023/12/04 09:22:40;;;;;;;14.43;13.63;;;;;;;;;;5068432;28;20041;-69
2023/12/04 09:25:06;;;;;;;13.90;13.15;;;;;;;;;;5063438;28;20104;-70
2023/12/04 09:27:31;;;;;;;13.85;13.10;;;;;;;;;;5076247;28;20543;-68
2023/12/04 09:29:56;;;;;;;15.63;14.68;;;;;;;;;;5068316;28;20479;-68
2023/12/04 09:32:23;;;;;;;13.88;13.13;;;;;;;;;;5065390;28;20641;-70
2023/12/04 09:34:48;;;;;;;14.00;13.20;;;;;;;;;;5064366;28;20054;-68
2023/12/04 09:37:14;;;;;;;14.18;13.38;;;;;;;;;;5065204;28;20480;-71
2023/12/04 09:39:40;;;;;;;14.25;13.45;;;;;;;;;;5069046;28;20028;-70
2023/12/04 09:42:06;;;;;;;13.45;12.75;;;;;;;;;;5068068;28;20388;-72
2023/12/04 09:44:32;;;;;;;14.82;13.93;;;;;;;;;;5061755;28;20442;-70
2023/12/04 09:46:58;;;;;;;13.30;12.60;;;;;;;;;;5068967;28;20035;-71
2023/12/04 09:49:25;;;;;;;14.57;13.73;;;;;;;;;;5070487;28;20020;-70
2023/12/04 09:51:50;;;;;;;13.77;12.98;;;;;;;;;;5067765;28;20052;-73
2023/12/04 09:54:16;;;;;;;13.18;12.48;;;;;;;;;;5077412;28;20067;-69
2023/12/04 09:56:43;;;;;;;12.32;11.73;;;;;;;;;;5068776;28;20028;-70
2023/12/04 09:59:09;;;;;;;13.77;13.02;;;;;;;;;;5073634;28;20012;-70
2023/12/04 10:01:36;;;;;;;13.88;13.07;;;;;;;;;;5069651;28;20015;-69
2023/12/04 10:04:04;;;;;;;14.93;14.02;;;;;;;;;;5063174;28;20008;-71
2023/12/04 10:06:30;;;;;;;13.68;12.90;;;;;;;;;;5061172;28;20051;-72
2023/12/04 10:08:58;;;;;;;13.40;12.70;;;;;;;;;;5067739;28;20436;-73
2023/12/04 10:11:23;;;;;;;13.65;12.90;;;;;;;;;;5066424;28;20058;-67
2023/12/04 10:13:49;;;;;;;13.20;12.50;;;;;;;;;;5061057;28;20052;-68
2023/12/04 10:16:14;;;;;;;14.00;13.20;;;;;;;;;;5061613;28;20969;-67
2023/12/04 10:18:39;;;;;;;13.13;12.43;;;;;;;;;;5066445;28;20946;-66
2023/12/04 10:21:07;;;;;;;14.02;13.23;;;;;;;;;;5057940;28;20044;-69
2023/12/04 10:23:39;;;;;;;13.25;12.55;;;;;;;;;;5065195;28;20882;-69
2023/12/04 10:26:07;;;;;;;13.35;12.65;;;;;;;;;;5061027;28;20039;-69
2023/12/04 10:28:32;;;;;;;13.68;12.98;;;;;;;;;;5069110;28;20448;-69
2023/12/04 10:30:57;;;;;;;14.80;13.90;;;;;;;;;;5063741;28;20081;-68
2023/12/04 10:33:25;;;;;;;14.80;13.93;;;;;;;;;;5064991;28;20492;-69
2023/12/04 10:35:51;;;;;;;14.40;13.60;;;;;;;;;;5065297;28;20553;-68
2023/12/04 10:38:18;;;;;;;14.18;13.38;;;;;;;;;;5060275;28;20017;-67
2023/12/04 10:40:43;;;;;;;12.95;12.25;;;;;;;;;;5064808;28;20484;-68
2023/12/04 10:43:08;;;;;;;12.38;11.77;;;;;;;;;;5067499;28;20021;-69
2023/12/04 10:45:34;;;;;;;14.90;14.00;;;;;;;;;;5060941;28;20086;-68
2023/12/04 10:48:00;;;;;;;14.75;13.85;;;;;;;;;;5062451;28;20020;-69
2023/12/04 10:50:26;;;;;;;14.23;13.43;;;;;;;;;;5064334;28;20102;-69
2023/12/04 10:52:53;;;;;;;13.63;12.93;;;;;;;;;;5063263;28;20051;-68
2023/12/04 10:55:19;;;;;;;13.63;12.90;;;;;;;;;;5061691;28;20120;-70
2023/12/04 10:57:44;;;;;;;15.88;14.88;;;;;;;;;;5058037;28;20546;-68
2023/12/04 11:00:11;;;;;;;14.38;13.57;;;;;;;;;;5060964;28;20025;-67
2023/12/04 11:02:46;;;;;;;13.90;13.10;;;;;;;;;;5057994;28;20020;-68
2023/12/04 11:05:14;;;;;;;14.18;13.38;;;;;;;;;;5064027;28;20051;-67
2023/12/04 11:07:52;;;;;;;13.07;12.38;;;;;;;;;;5066539;28;20039;-67
2023/12/04 11:10:19;;;;;;;13.38;12.68;;;;;;;;;;5066395;28;20020;-69
2023/12/04 11:12:45;;;;;;;13.63;12.93;;;;;;;;;;5066556;28;20047;-71
2023/12/04 11:15:13;;;;;;;13.98;13.18;;;;;;;;;;5064957;28;20075;-68
2023/12/04 11:17:39;;;;;;;13.63;12.90;;;;;;;;;;5075375;28;20391;-68
2023/12/04 11:20:09;;;;;;;14.05;13.25;;;;;;;;;;5064746;28;20028;-71
2023/12/04 11:22:38;;;;;;;14.23;13.40;;;;;;;;;;5059480;28;20135;-72
2023/12/04 11:25:05;;;;;;;13.57;12.85;;;;;;;;;;5059751;28;20119;-71
2023/12/04 11:27:31;;;;;;;13.20;12.50;;;;;;;;;;5065700;28;20378;-70
2023/12/04 11:29:57;;;;;;;13.48;12.77;;;;;;;;;;5065975;28;20025;-71
2023/12/04 11:32:24;;;;;;;13.13;12.43;;;;;;;;;;5060281;28;20047;-73
2023/12/04 11:34:50;;;;;;;13.85;13.05;;;;;;;;;;5059223;28;20017;-68
2023/12/04 11:37:15;;;;;;;13.48;12.77;;;;;;;;;;5064482;28;20025;-68
2023/12/04 11:39:41;;;;;;;14.30;13.50;;;;;;;;;;5063631;28;20031;-72
2023/12/04 11:42:06;;;;;;;14.55;13.68;;;;;;;;;;5064270;28;20120;-68
2023/12/04 11:44:32;;;;;;;14.48;13.65;;;;;;;;;;5071431;28;20013;-71
2023/12/04 11:47:07;;;;;;;14.93;14.02;;;;;;;;;;5061592;28;20036;-72
2023/12/04 11:49:32;;;;;;;14.15;13.35;;;;;;;;;;5064650;28;20548;-72
2023/12/04 11:51:58;;;;;;;13.70;12.95;;;;;;;;;;5066990;28;20028;-70
2023/12/04 11:54:26;;;;;;;14.23;13.43;;;;;;;;;;5069231;28;20131;-69
2023/12/04 11:57:10;;;;;;;13.80;13.02;;;;;;;;;;5065578;28;20032;-72
2023/12/04 11:59:38;;;;;;;13.77;12.97;;;;;;;;;;5068459;28;20028;-71
2023/12/04 12:02:07;;;;;;;14.15;13.35;;;;;;;;;;5063969;28;20017;-71
2023/12/04 12:04:33;;;;;;;14.05;13.25;;;;;;;;;;5062969;28;20773;-69
2023/12/04 12:06:58;;;;;;;13.68;12.90;;;;;;;;;;5064549;28;20039;-70
2023/12/04 12:09:24;;;;;;;14.68;13.77;;;;;;;;;;5062176;28;20025;-71
2023/12/04 12:11:49;;;;;;;14.63;13.80;;;;;;;;;;5066353;28;20083;-73
2023/12/04 12:14:14;;;;;;;13.85;13.07;;;;;;;;;;5062523;28;20044;-71
2023/12/04 12:16:41;;;;;;;14.32;13.52;;;;;;;;;;5057905;28;20101;-68
2023/12/04 12:19:06;;;;;;;14.38;13.57;;;;;;;;;;5061591;28;20476;-70
2023/12/04 12:21:32;;;;;;;14.13;13.32;;;;;;;;;;5069237;28;20073;-69
2023/12/04 12:23:58;;;;;;;13.77;12.98;;;;;;;;;;5064293;28;20033;-69
2023/12/04 12:26:23;;;;;;;14.38;13.57;;;;;;;;;;5067631;28;20031;-68
2023/12/04 12:28:49;;;;;;;14.65;13.77;;;;;;;;;;5068189;28;20020;-68
2023/12/04 12:31:15;;;;;;;13.60;12.85;;;;;;;;;;5067614;28;20127;-70
2023/12/04 12:33:40;;;;;;;15.55;14.57;;;;;;;;;;5056887;28;20108;-69
2023/12/04 12:36:06;;;;;;;14.00;13.20;;;;;;;;;;5061656;28;20038;-69
2023/12/04 12:38:35;;;;;;;13.68;12.88;;;;;;;;;;5063835;28;20024;-67
2023/12/04 12:41:06;;;;;;;13.82;13.02;;;;;;;;;;5068026;28;20106;-69
2023/12/04 12:43:32;;;;;;;15.07;14.18;;;;;;;;;;5065081;28;20024;-68
2023/12/04 12:45:59;;;;;;;13.43;12.73;;;;;;;;;;5061789;28;20088;-67
2023/12/04 12:48:26;;;;;;;14.45;13.60;;;;;;;;;;5070177;28;20089;-67
2023/12/04 12:50:52;;;;;;;13.98;13.18;;;;;;;;;;5068135;28;20024;-68
2023/12/04 12:53:17;;;;;;;13.27;12.57;;;;;;;;;;5062119;28;20504;-70
2023/12/04 12:55:44;;;;;;;14.38;13.55;;;;;;;;;;5075055;28;20464;-69
2023/12/04 12:58:20;;;;;;;14.00;13.20;;;;;;;;;;5075601;28;20033;-70
2023/12/04 13:00:45;;;;;;;13.48;12.70;;;;;;;;;;5063760;28;20461;-68
2023/12/04 13:03:17;;;;;;;14.70;13.80;;;;;;;;;;5058383;28;20017;-68
2023/12/04 13:05:42;;;;;;;13.30;12.60;;;;;;;;;;5066265;28;20027;-69
2023/12/04 13:08:08;;;;;;;14.65;13.75;;;;;;;;;;5067365;28;20107;-69
2023/12/04 13:10:33;;;;;;;14.65;13.75;;;;;;;;;;5069031;28;20483;-69
2023/12/04 13:12:59;;;;;;;13.07;12.38;;;;;;;;;;5062254;28;20534;-73
2023/12/04 13:15:25;;;;;;;14.00;13.20;;;;;;;;;;5068121;28;20094;-70
2023/12/04 13:17:50;;;;;;;16.42;15.35;;;;;;;;;;5063706;28;20028;-68
2023/12/04 13:20:16;;;;;;;13.38;12.68;;;;;;;;;;5062045;28;20024;-71
2023/12/04 13:22:42;;;;;;;14.30;13.50;;;;;;;;;;5069144;28;20048;-69
2023/12/04 13:25:09;;;;;;;12.98;12.27;;;;;;;;;;5067965;28;20063;-70
2023/12/04 13:27:36;;;;;;;14.20;13.40;;;;;;;;;;5073200;28;20037;-69
2023/12/04 13:30:01;;;;;;;14.75;13.85;;;;;;;;;;5063597;28;20100;-70
2023/12/04 13:32:29;;;;;;;15.40;14.43;;;;;;;;;;5087234;28;20115;-68
2023/12/04 13:34:55;;;;;;;14.13;13.32;;;;;;;;;;5065341;28;20515;-68
2023/12/04 13:37:20;;;;;;;14.07;13.27;;;;;;;;;;5067956;28;20021;-70
2023/12/04 13:39:51;;;;;;;15.05;14.13;;;;;;;;;;5065885;28;20024;-69
2023/12/04 13:45:01;;;;;;;13.95;13.15;;;;;;;;;;5067777;28;20071;-68
2023/12/04 13:47:27;;;;;;;14.70;13.80;;;;;;;;;;5067704;28;20032;-67
2023/12/04 13:49:52;;;;;;;14.90;14.00;;;;;;;;;;5070982;28;20070;-70
2023/12/04 13:52:22;;;;;;;13.50;12.77;;;;;;;;;;5065026;28;20021;-74
2023/12/04 13:54:49;;;;;;;14.25;13.45;;;;;;;;;;5066125;28;20023;-69
2023/12/04 13:57:33;;;;;;;14.40;13.57;;;;;;;;;;5065851;28;20024;-71
2023/12/04 14:00:03;;;;;;;14.23;13.43;;;;;;;;;;5063269;28;20017;-69
2023/12/04 14:02:29;;;;;;;14.60;13.70;;;;;;;;;;5064268;28;20033;-69
2023/12/04 14:04:54;;;;;;;13.73;12.95;;;;;;;;;;5064319;28;20499;-69
2023/12/04 14:07:19;;;;;;;13.68;12.88;;;;;;;;;;5063610;28;20020;-70
2023/12/04 14:09:45;;;;;;;14.00;13.20;;;;;;;;;;5067665;28;20396;-69
2023/12/04 14:12:10;;;;;;;14.65;13.75;;;;;;;;;;5064626;28;20042;-72